sensor_id;sensor_type;location;lat;lon;timestamp;temperature;humidity
4964;DHT22;2497;47.410;9.740;2022-07-06T00:01:21;16.40;99.90
4964;DHT22;2497;47.410;9.740;2022-07-06T00:03:50;16.40;99.90
4964;DHT22;2497;47.410;9.740;2022-07-06T00:06:17;16.40;99.90
4964;DHT22;2497;47.410;9.740;2022-07-06T00:08:44;16.30;99.90
4964;DHT22;2497;47.410;9.740;2022-07-06T00:11:11;16.40;99.90
4964;DHT22;2497;47.410;9.740;2022-07-06T00:13:40;16.40;99.90
4964;DHT22;2497;47.410;9.740;2022-07-06T00:16:08;16.40;99.90
4964;DHT22;2497;47.410;9.740;2022-07-06T00:18:36;16.50;99.90
4964;DHT22;2497;47.410;9.740;2022-07-06T00:21:03;16.50;99.90
4964;DHT22;2497;47.410;9.740;2022-07-06T00:23:31;16.40;99.90
4964;DHT22;2497;47.410;9.740;2022-07-06T00:25:58;16.30;99.90
4964;DHT22;2497;47.410;9.740;2022-07-06T00:28:26;16.30;99.90
4964;DHT22;2497;47.410;9.740;2022-07-06T00:30:55;16.30;99.90
4964;DHT22;2497;47.410;9.740;2022-07-06T00:33:22;16.40;99.90
4964;DHT22;2497;47.410;9.740;2022-07-06T00:35:50;16.40;99.90
4964;DHT22;2497;47.410;9.740;2022-07-06T00:38:17;16.40;99.90
4964;DHT22;2497;47.410;9.740;2022-07-06T00:40:45;16.50;99.90
4964;DHT22;2497;47.410;9.740;2022-07-06T00:43:12;16.50;99.90
4964;DHT22;2497;47.410;9.740;2022-07-06T00:45:39;16.50;99.90
4964;DHT22;2497;47.410;9.740;2022-07-06T00:48:09;16.50;99.90
4964;DHT22;2497;47.410;9.740;2022-07-06T00:50:36;16.60;99.90
4964;DHT22;2497;47.410;9.740;2022-07-06T00:53:05;16.60;99.90
4964;DHT22;2497;47.410;9.740;2022-07-06T00:55:35;16.50;99.90
4964;DHT22;2497;47.410;9.740;2022-07-06T00:58:05;16.50;99.90
4964;DHT22;2497;47.410;9.740;2022-07-06T01:00:33;16.50;99.90
4964;DHT22;2497;47.410;9.740;2022-07-06T01:03:01;16.40;99.90
4964;DHT22;2497;47.410;9.740;2022-07-06T01:05:31;16.40;99.90
4964;DHT22;2497;47.410;9.740;2022-07-06T01:07:58;16.40;99.90
4964;DHT22;2497;47.410;9.740;2022-07-06T01:10:26;16.40;99.90
4964;DHT22;2497;47.410;9.740;2022-07-06T01:12:55;16.30;99.90
4964;DHT22;2497;47.410;9.740;2022-07-06T01:15:24;16.20;99.90
4964;DHT22;2497;47.410;9.740;2022-07-06T01:17:52;16.20;99.90
4964;DHT22;2497;47.410;9.740;2022-07-06T01:20:23;16.10;99.90
4964;DHT22;2497;47.410;9.740;2022-07-06T01:22:54;16.10;99.90
4964;DHT22;2497;47.410;9.740;2022-07-06T01:25:21;16.10;99.90
4964;DHT22;2497;47.410;9.740;2022-07-06T01:27:48;16.20;99.90
4964;DHT22;2497;47.410;9.740;2022-07-06T01:30:18;16.10;99.90
4964;DHT22;2497;47.410;9.740;2022-07-06T01:32:46;16.10;99.90
4964;DHT22;2497;47.410;9.740;2022-07-06T01:35:15;16.10;99.90
4964;DHT22;2497;47.410;9.740;2022-07-06T01:37:44;16.10;99.90
4964;DHT22;2497;47.410;9.740;2022-07-06T01:40:12;16.10;99.90
4964;DHT22;2497;47.410;9.740;2022-07-06T01:42:39;16.20;99.90
4964;DHT22;2497;47.410;9.740;2022-07-06T01:45:09;16.10;99.90
4964;DHT22;2497;47.410;9.740;2022-07-06T01:47:36;16.10;99.90
4964;DHT22;2497;47.410;9.740;2022-07-06T01:50:06;16.10;99.90
4964;DHT22;2497;47.410;9.740;2022-07-06T01:52:36;16.10;99.90
4964;DHT22;2497;47.410;9.740;2022-07-06T01:55:09;16.10;99.90
4964;DHT22;2497;47.410;9.740;2022-07-06T01:57:36;16.10;99.90
4964;DHT22;2497;47.410;9.740;2022-07-06T02:00:06;16.00;99.90
4964;DHT22;2497;47.410;9.740;2022-07-06T02:02:34;16.10;99.90
4964;DHT22;2497;47.410;9.740;2022-07-06T02:05:01;16.00;99.90
4964;DHT22;2497;47.410;9.740;2022-07-06T02:07:28;16.10;99.90
4964;DHT22;2497;47.410;9.740;2022-07-06T02:09:56;16.10;99.90
4964;DHT22;2497;47.410;9.740;2022-07-06T02:12:24;16.10;99.90
4964;DHT22;2497;47.410;9.740;2022-07-06T02:14:52;16.10;99.90
4964;DHT22;2497;47.410;9.740;2022-07-06T02:17:19;16.10;99.90
4964;DHT22;2497;47.410;9.740;2022-07-06T02:19:46;16.10;99.90
4964;DHT22;2497;47.410;9.740;2022-07-06T02:22:13;16.10;99.90
4964;DHT22;2497;47.410;9.740;2022-07-06T02:24:41;16.10;99.90
4964;DHT22;2497;47.410;9.740;2022-07-06T02:27:08;16.10;99.90
4964;DHT22;2497;47.410;9.740;2022-07-06T02:29:37;16.10;99.90
4964;DHT22;2497;47.410;9.740;2022-07-06T02:32:05;16.10;99.90
4964;DHT22;2497;47.410;9.740;2022-07-06T02:34:32;16.10;99.90
4964;DHT22;2497;47.410;9.740;2022-07-06T02:37:00;16.00;99.90
4964;DHT22;2497;47.410;9.740;2022-07-06T02:39:27;16.00;99.90
4964;DHT22;2497;47.410;9.740;2022-07-06T02:41:55;16.00;99.90
4964;DHT22;2497;47.410;9.740;2022-07-06T02:44:23;16.00;99.90
4964;DHT22;2497;47.410;9.740;2022-07-06T02:46:52;16.10;99.90
4964;DHT22;2497;47.410;9.740;2022-07-06T02:49:19;16.10;99.90
4964;DHT22;2497;47.410;9.740;2022-07-06T02:51:46;16.10;99.90
4964;DHT22;2497;47.410;9.740;2022-07-06T02:54:13;16.10;99.90
4964;DHT22;2497;47.410;9.740;2022-07-06T02:56:41;16.10;99.90
4964;DHT22;2497;47.410;9.740;2022-07-06T02:59:09;16.10;99.90
4964;DHT22;2497;47.410;9.740;2022-07-06T03:01:37;16.10;99.90
4964;DHT22;2497;47.410;9.740;2022-07-06T03:04:06;16.10;99.90
4964;DHT22;2497;47.410;9.740;2022-07-06T03:06:34;16.10;99.90
4964;DHT22;2497;47.410;9.740;2022-07-06T03:09:01;16.20;99.90
4964;DHT22;2497;47.410;9.740;2022-07-06T03:11:29;16.10;99.90
4964;DHT22;2497;47.410;9.740;2022-07-06T03:13:56;16.10;99.90
4964;DHT22;2497;47.410;9.740;2022-07-06T03:16:24;16.10;99.90
4964;DHT22;2497;47.410;9.740;2022-07-06T03:18:51;16.10;99.90
4964;DHT22;2497;47.410;9.740;2022-07-06T03:21:20;16.10;99.90
4964;DHT22;2497;47.410;9.740;2022-07-06T03:23:54;16.00;99.90
4964;DHT22;2497;47.410;9.740;2022-07-06T03:26:21;15.90;99.90
4964;DHT22;2497;47.410;9.740;2022-07-06T03:28:48;15.90;99.90
4964;DHT22;2497;47.410;9.740;2022-07-06T03:31:16;15.90;99.90
4964;DHT22;2497;47.410;9.740;2022-07-06T03:33:43;15.80;99.90
4964;DHT22;2497;47.410;9.740;2022-07-06T03:36:11;15.70;99.90
4964;DHT22;2497;47.410;9.740;2022-07-06T03:38:40;15.80;99.90
4964;DHT22;2497;47.410;9.740;2022-07-06T03:41:07;15.90;99.90
4964;DHT22;2497;47.410;9.740;2022-07-06T03:43:34;15.80;99.90
4964;DHT22;2497;47.410;9.740;2022-07-06T03:46:03;15.70;99.90
4964;DHT22;2497;47.410;9.740;2022-07-06T03:48:31;15.70;99.90
4964;DHT22;2497;47.410;9.740;2022-07-06T03:50:58;15.70;99.90
4964;DHT22;2497;47.410;9.740;2022-07-06T03:53:25;15.60;99.90
4964;DHT22;2497;47.410;9.740;2022-07-06T03:55:55;15.60;99.90
4964;DHT22;2497;47.410;9.740;2022-07-06T03:58:43;15.60;99.90
4964;DHT22;2497;47.410;9.740;2022-07-06T04:01:10;15.70;99.90
4964;DHT22;2497;47.410;9.740;2022-07-06T04:03:39;15.80;99.90
4964;DHT22;2497;47.410;9.740;2022-07-06T04:06:06;15.80;99.90
4964;DHT22;2497;47.410;9.740;2022-07-06T04:08:34;15.80;99.90
4964;DHT22;2497;47.410;9.740;2022-07-06T04:11:03;15.80;99.90
4964;DHT22;2497;47.410;9.740;2022-07-06T04:13:30;15.80;99.90
4964;DHT22;2497;47.410;9.740;2022-07-06T04:15:58;15.90;99.90
4964;DHT22;2497;47.410;9.740;2022-07-06T04:18:26;15.90;99.90
4964;DHT22;2497;47.410;9.740;2022-07-06T04:20:54;16.00;99.90
4964;DHT22;2497;47.410;9.740;2022-07-06T04:23:23;16.00;99.90
4964;DHT22;2497;47.410;9.740;2022-07-06T04:25:51;16.00;99.90
4964;DHT22;2497;47.410;9.740;2022-07-06T04:28:20;16.00;99.90
4964;DHT22;2497;47.410;9.740;2022-07-06T04:30:48;16.00;99.90
4964;DHT22;2497;47.410;9.740;2022-07-06T04:33:15;16.00;99.90
4964;DHT22;2497;47.410;9.740;2022-07-06T04:35:43;16.10;99.90
4964;DHT22;2497;47.410;9.740;2022-07-06T04:38:10;16.00;99.90
4964;DHT22;2497;47.410;9.740;2022-07-06T04:40:37;16.10;99.90
4964;DHT22;2497;47.410;9.740;2022-07-06T04:43:05;16.10;99.90
4964;DHT22;2497;47.410;9.740;2022-07-06T04:45:33;16.10;99.90
4964;DHT22;2497;47.410;9.740;2022-07-06T04:48:01;16.10;99.90
4964;DHT22;2497;47.410;9.740;2022-07-06T04:50:29;16.20;99.90
4964;DHT22;2497;47.410;9.740;2022-07-06T04:52:58;16.20;99.90
4964;DHT22;2497;47.410;9.740;2022-07-06T04:55:25;16.20;99.90
4964;DHT22;2497;47.410;9.740;2022-07-06T04:57:53;16.20;99.90
4964;DHT22;2497;47.410;9.740;2022-07-06T05:00:20;16.30;99.90
4964;DHT22;2497;47.410;9.740;2022-07-06T05:02:52;16.20;99.90
4964;DHT22;2497;47.410;9.740;2022-07-06T05:05:20;16.20;99.90
4964;DHT22;2497;47.410;9.740;2022-07-06T05:07:48;16.30;99.90
4964;DHT22;2497;47.410;9.740;2022-07-06T05:10:15;16.30;99.90
4964;DHT22;2497;47.410;9.740;2022-07-06T05:12:42;16.30;99.90
4964;DHT22;2497;47.410;9.740;2022-07-06T05:15:10;16.40;99.90
4964;DHT22;2497;47.410;9.740;2022-07-06T05:17:37;16.50;99.90
4964;DHT22;2497;47.410;9.740;2022-07-06T05:20:09;16.50;99.90
4964;DHT22;2497;47.410;9.740;2022-07-06T05:22:37;16.60;99.90
4964;DHT22;2497;47.410;9.740;2022-07-06T05:25:05;16.70;99.90
4964;DHT22;2497;47.410;9.740;2022-07-06T05:27:32;16.70;99.90
4964;DHT22;2497;47.410;9.740;2022-07-06T05:30:00;16.70;99.90
4964;DHT22;2497;47.410;9.740;2022-07-06T05:32:28;16.80;99.90
4964;DHT22;2497;47.410;9.740;2022-07-06T05:34:55;16.90;99.90
4964;DHT22;2497;47.410;9.740;2022-07-06T05:37:27;17.00;99.90
4964;DHT22;2497;47.410;9.740;2022-07-06T05:39:54;16.90;99.90
4964;DHT22;2497;47.410;9.740;2022-07-06T05:42:22;16.90;99.90
4964;DHT22;2497;47.410;9.740;2022-07-06T05:44:49;17.00;99.90
4964;DHT22;2497;47.410;9.740;2022-07-06T05:47:17;17.10;99.90
4964;DHT22;2497;47.410;9.740;2022-07-06T05:50:02;17.10;99.90
4964;DHT22;2497;47.410;9.740;2022-07-06T05:52:44;17.20;99.90
4964;DHT22;2497;47.410;9.740;2022-07-06T05:55:13;17.20;99.90
4964;DHT22;2497;47.410;9.740;2022-07-06T05:57:41;17.20;99.90
4964;DHT22;2497;47.410;9.740;2022-07-06T06:00:09;17.30;99.90
4964;DHT22;2497;47.410;9.740;2022-07-06T06:02:37;17.40;99.90
4964;DHT22;2497;47.410;9.740;2022-07-06T06:05:06;17.50;99.90
4964;DHT22;2497;47.410;9.740;2022-07-06T06:07:34;17.50;99.90
4964;DHT22;2497;47.410;9.740;2022-07-06T06:10:04;17.60;99.90
4964;DHT22;2497;47.410;9.740;2022-07-06T06:12:32;17.60;99.90
4964;DHT22;2497;47.410;9.740;2022-07-06T06:15:00;17.70;99.90
4964;DHT22;2497;47.410;9.740;2022-07-06T06:17:28;17.80;99.90
4964;DHT22;2497;47.410;9.740;2022-07-06T06:19:56;17.80;99.90
4964;DHT22;2497;47.410;9.740;2022-07-06T06:22:24;17.90;99.90
4964;DHT22;2497;47.410;9.740;2022-07-06T06:24:51;17.90;99.90
4964;DHT22;2497;47.410;9.740;2022-07-06T06:27:20;17.90;99.90
4964;DHT22;2497;47.410;9.740;2022-07-06T06:29:47;18.00;99.90
4964;DHT22;2497;47.410;9.740;2022-07-06T06:32:14;18.10;99.90
4964;DHT22;2497;47.410;9.740;2022-07-06T06:34:42;18.30;99.90
4964;DHT22;2497;47.410;9.740;2022-07-06T06:37:10;18.50;99.90
4964;DHT22;2497;47.410;9.740;2022-07-06T06:39:37;18.60;99.90
4964;DHT22;2497;47.410;9.740;2022-07-06T06:42:06;18.80;99.90
4964;DHT22;2497;47.410;9.740;2022-07-06T06:44:35;18.90;99.90
4964;DHT22;2497;47.410;9.740;2022-07-06T06:47:03;19.00;99.90
4964;DHT22;2497;47.410;9.740;2022-07-06T06:49:30;19.10;99.90
4964;DHT22;2497;47.410;9.740;2022-07-06T06:51:58;18.90;99.90
4964;DHT22;2497;47.410;9.740;2022-07-06T06:54:25;19.00;99.90
4964;DHT22;2497;47.410;9.740;2022-07-06T06:56:53;19.00;99.90
4964;DHT22;2497;47.410;9.740;2022-07-06T06:59:21;18.90;99.90
4964;DHT22;2497;47.410;9.740;2022-07-06T07:01:50;19.00;99.90
4964;DHT22;2497;47.410;9.740;2022-07-06T07:04:20;19.00;99.90
4964;DHT22;2497;47.410;9.740;2022-07-06T07:06:48;19.10;99.90
4964;DHT22;2497;47.410;9.740;2022-07-06T07:09:15;19.20;99.90
4964;DHT22;2497;47.410;9.740;2022-07-06T07:11:43;19.30;99.90
4964;DHT22;2497;47.410;9.740;2022-07-06T07:14:13;19.70;99.90
4964;DHT22;2497;47.410;9.740;2022-07-06T07:16:41;19.80;99.90
4964;DHT22;2497;47.410;9.740;2022-07-06T07:19:10;19.90;99.90
4964;DHT22;2497;47.410;9.740;2022-07-06T07:21:37;20.20;99.90
4964;DHT22;2497;47.410;9.740;2022-07-06T07:24:05;20.40;99.90
4964;DHT22;2497;47.410;9.740;2022-07-06T07:26:33;20.40;99.90
4964;DHT22;2497;47.410;9.740;2022-07-06T07:29:00;20.70;99.90
4964;DHT22;2497;47.410;9.740;2022-07-06T07:31:27;20.70;99.90
4964;DHT22;2497;47.410;9.740;2022-07-06T07:33:55;20.70;99.90
4964;DHT22;2497;47.410;9.740;2022-07-06T07:36:25;21.10;99.90
4964;DHT22;2497;47.410;9.740;2022-07-06T07:38:53;21.20;99.90
4964;DHT22;2497;47.410;9.740;2022-07-06T07:41:20;21.30;99.90
4964;DHT22;2497;47.410;9.740;2022-07-06T07:43:48;21.70;99.90
4964;DHT22;2497;47.410;9.740;2022-07-06T07:46:15;21.60;99.90
4964;DHT22;2497;47.410;9.740;2022-07-06T07:48:42;22.00;99.90
4964;DHT22;2497;47.410;9.740;2022-07-06T07:51:10;22.40;99.90
4964;DHT22;2497;47.410;9.740;2022-07-06T07:53:39;22.50;99.90
4964;DHT22;2497;47.410;9.740;2022-07-06T07:56:06;22.70;99.90
4964;DHT22;2497;47.410;9.740;2022-07-06T07:58:34;22.50;99.90
4964;DHT22;2497;47.410;9.740;2022-07-06T08:01:01;22.80;99.90
4964;DHT22;2497;47.410;9.740;2022-07-06T08:03:29;22.90;99.90
4964;DHT22;2497;47.410;9.740;2022-07-06T08:05:57;22.60;99.90
4964;DHT22;2497;47.410;9.740;2022-07-06T08:08:27;22.90;99.90
4964;DHT22;2497;47.410;9.740;2022-07-06T08:10:56;22.90;99.90
4964;DHT22;2497;47.410;9.740;2022-07-06T08:13:23;23.10;99.90
4964;DHT22;2497;47.410;9.740;2022-07-06T08:15:50;23.10;99.90
4964;DHT22;2497;47.410;9.740;2022-07-06T08:18:18;23.80;99.90
4964;DHT22;2497;47.410;9.740;2022-07-06T08:20:45;24.10;99.90
4964;DHT22;2497;47.410;9.740;2022-07-06T08:23:13;23.70;99.90
4964;DHT22;2497;47.410;9.740;2022-07-06T08:25:40;23.30;99.90
4964;DHT22;2497;47.410;9.740;2022-07-06T08:28:09;22.90;99.90
4964;DHT22;2497;47.410;9.740;2022-07-06T08:30:36;23.10;99.90
4964;DHT22;2497;47.410;9.740;2022-07-06T08:33:04;23.40;99.90
4964;DHT22;2497;47.410;9.740;2022-07-06T08:35:31;23.40;99.90
4964;DHT22;2497;47.410;9.740;2022-07-06T08:37:58;23.60;99.90
4964;DHT22;2497;47.410;9.740;2022-07-06T08:40:26;23.50;99.90
4964;DHT22;2497;47.410;9.740;2022-07-06T08:42:59;23.80;99.90
4964;DHT22;2497;47.410;9.740;2022-07-06T08:45:29;23.70;99.90
4964;DHT22;2497;47.410;9.740;2022-07-06T08:47:59;24.00;99.90
4964;DHT22;2497;47.410;9.740;2022-07-06T08:50:30;24.30;99.90
4964;DHT22;2497;47.410;9.740;2022-07-06T08:52:58;24.50;99.90
4964;DHT22;2497;47.410;9.740;2022-07-06T08:55:26;24.30;99.90
4964;DHT22;2497;47.410;9.740;2022-07-06T08:57:55;25.00;99.90
4964;DHT22;2497;47.410;9.740;2022-07-06T09:00:23;25.00;99.90
4964;DHT22;2497;47.410;9.740;2022-07-06T09:02:53;25.30;99.90
4964;DHT22;2497;47.410;9.740;2022-07-06T09:05:23;25.10;99.90
4964;DHT22;2497;47.410;9.740;2022-07-06T09:07:53;25.30;99.90
4964;DHT22;2497;47.410;9.740;2022-07-06T09:10:21;25.20;99.90
4964;DHT22;2497;47.410;9.740;2022-07-06T09:12:49;25.20;99.90
4964;DHT22;2497;47.410;9.740;2022-07-06T09:15:16;25.70;99.90
4964;DHT22;2497;47.410;9.740;2022-07-06T09:17:44;25.70;99.90
4964;DHT22;2497;47.410;9.740;2022-07-06T09:20:13;25.50;99.90
4964;DHT22;2497;47.410;9.740;2022-07-06T09:22:41;26.00;99.90
4964;DHT22;2497;47.410;9.740;2022-07-06T09:25:10;26.00;99.90
4964;DHT22;2497;47.410;9.740;2022-07-06T09:27:39;26.10;99.90
4964;DHT22;2497;47.410;9.740;2022-07-06T09:30:08;25.90;99.90
4964;DHT22;2497;47.410;9.740;2022-07-06T09:32:45;26.00;99.90
4964;DHT22;2497;47.410;9.740;2022-07-06T09:35:22;26.10;99.90
4964;DHT22;2497;47.410;9.740;2022-07-06T09:38:00;26.60;99.90
4964;DHT22;2497;47.410;9.740;2022-07-06T09:40:30;26.70;99.90
4964;DHT22;2497;47.410;9.740;2022-07-06T09:43:12;27.10;99.90
4964;DHT22;2497;47.410;9.740;2022-07-06T09:45:42;27.50;99.90
4964;DHT22;2497;47.410;9.740;2022-07-06T09:48:11;27.20;99.90
4964;DHT22;2497;47.410;9.740;2022-07-06T09:50:41;27.00;99.90
4964;DHT22;2497;47.410;9.740;2022-07-06T09:53:09;26.90;99.90
4964;DHT22;2497;47.410;9.740;2022-07-06T09:55:37;26.60;99.90
4964;DHT22;2497;47.410;9.740;2022-07-06T09:58:04;26.90;99.90
4964;DHT22;2497;47.410;9.740;2022-07-06T10:00:32;27.70;99.90
4964;DHT22;2497;47.410;9.740;2022-07-06T10:03:00;27.60;99.90
4964;DHT22;2497;47.410;9.740;2022-07-06T10:05:28;27.50;99.90
4964;DHT22;2497;47.410;9.740;2022-07-06T10:07:59;27.40;99.90
4964;DHT22;2497;47.410;9.740;2022-07-06T10:10:27;27.20;99.90
4964;DHT22;2497;47.410;9.740;2022-07-06T10:12:56;27.10;99.90
4964;DHT22;2497;47.410;9.740;2022-07-06T10:15:26;27.10;99.90
4964;DHT22;2497;47.410;9.740;2022-07-06T10:17:54;27.50;99.90
4964;DHT22;2497;47.410;9.740;2022-07-06T10:20:22;27.80;99.90
4964;DHT22;2497;47.410;9.740;2022-07-06T10:22:50;27.70;99.90
4964;DHT22;2497;47.410;9.740;2022-07-06T10:25:20;27.70;99.90
4964;DHT22;2497;47.410;9.740;2022-07-06T10:27:48;27.90;99.90
4964;DHT22;2497;47.410;9.740;2022-07-06T10:30:16;27.70;99.90
4964;DHT22;2497;47.410;9.740;2022-07-06T10:32:45;27.50;99.90
4964;DHT22;2497;47.410;9.740;2022-07-06T10:35:14;27.60;99.90
4964;DHT22;2497;47.410;9.740;2022-07-06T10:37:42;28.00;99.90
4964;DHT22;2497;47.410;9.740;2022-07-06T10:40:12;28.00;99.90
4964;DHT22;2497;47.410;9.740;2022-07-06T10:42:59;28.50;99.90
4964;DHT22;2497;47.410;9.740;2022-07-06T10:45:49;28.40;99.90
4964;DHT22;2497;47.410;9.740;2022-07-06T10:48:17;28.60;99.90
4964;DHT22;2497;47.410;9.740;2022-07-06T10:50:48;28.60;99.90
4964;DHT22;2497;47.410;9.740;2022-07-06T10:53:17;28.80;99.90
4964;DHT22;2497;47.410;9.740;2022-07-06T10:55:45;28.50;99.90
4964;DHT22;2497;47.410;9.740;2022-07-06T10:58:35;28.40;99.90
4964;DHT22;2497;47.410;9.740;2022-07-06T11:01:03;28.50;99.90
4964;DHT22;2497;47.410;9.740;2022-07-06T11:03:33;28.90;99.90
4964;DHT22;2497;47.410;9.740;2022-07-06T11:06:05;28.90;99.90
4964;DHT22;2497;47.410;9.740;2022-07-06T11:08:46;28.90;99.90
4964;DHT22;2497;47.410;9.740;2022-07-06T11:11:15;29.20;99.90
4964;DHT22;2497;47.410;9.740;2022-07-06T11:13:48;29.50;99.90
4964;DHT22;2497;47.410;9.740;2022-07-06T11:16:17;29.30;99.90
4964;DHT22;2497;47.410;9.740;2022-07-06T11:18:49;29.50;99.90
4964;DHT22;2497;47.410;9.740;2022-07-06T11:21:21;29.60;99.90
4964;DHT22;2497;47.410;9.740;2022-07-06T11:23:50;29.50;99.90
4964;DHT22;2497;47.410;9.740;2022-07-06T11:26:18;29.40;99.90
4964;DHT22;2497;47.410;9.740;2022-07-06T11:28:48;29.50;99.90
4964;DHT22;2497;47.410;9.740;2022-07-06T11:31:15;29.70;99.90
4964;DHT22;2497;47.410;9.740;2022-07-06T11:33:45;30.00;99.90
4964;DHT22;2497;47.410;9.740;2022-07-06T11:36:14;30.30;99.90
4964;DHT22;2497;47.410;9.740;2022-07-06T11:38:43;30.50;99.90
4964;DHT22;2497;47.410;9.740;2022-07-06T11:41:11;30.80;99.90
4964;DHT22;2497;47.410;9.740;2022-07-06T11:43:40;30.80;99.90
4964;DHT22;2497;47.410;9.740;2022-07-06T11:46:23;30.30;99.90
4964;DHT22;2497;47.410;9.740;2022-07-06T11:48:52;30.40;99.90
4964;DHT22;2497;47.410;9.740;2022-07-06T11:51:19;30.00;99.90
4964;DHT22;2497;47.410;9.740;2022-07-06T11:53:49;29.80;99.90
4964;DHT22;2497;47.410;9.740;2022-07-06T11:56:17;29.90;99.90
4964;DHT22;2497;47.410;9.740;2022-07-06T11:58:49;29.70;99.90
4964;DHT22;2497;47.410;9.740;2022-07-06T12:01:17;29.70;99.90
4964;DHT22;2497;47.410;9.740;2022-07-06T12:03:47;30.50;99.90
4964;DHT22;2497;47.410;9.740;2022-07-06T12:06:17;30.60;99.90
4964;DHT22;2497;47.410;9.740;2022-07-06T12:08:46;31.20;99.90
4964;DHT22;2497;47.410;9.740;2022-07-06T12:11:21;31.30;99.90
4964;DHT22;2497;47.410;9.740;2022-07-06T12:13:49;30.90;99.90
4964;DHT22;2497;47.410;9.740;2022-07-06T12:16:18;30.30;99.90
4964;DHT22;2497;47.410;9.740;2022-07-06T12:18:48;30.70;99.90
4964;DHT22;2497;47.410;9.740;2022-07-06T12:21:29;30.40;99.90
4964;DHT22;2497;47.410;9.740;2022-07-06T12:23:57;30.70;99.90
4964;DHT22;2497;47.410;9.740;2022-07-06T12:26:26;30.70;99.90
4964;DHT22;2497;47.410;9.740;2022-07-06T12:29:02;30.60;99.90
4964;DHT22;2497;47.410;9.740;2022-07-06T12:31:33;30.30;99.90
4964;DHT22;2497;47.410;9.740;2022-07-06T12:34:01;29.90;99.90
4964;DHT22;2497;47.410;9.740;2022-07-06T12:36:29;29.80;99.90
4964;DHT22;2497;47.410;9.740;2022-07-06T12:38:57;29.90;99.90
4964;DHT22;2497;47.410;9.740;2022-07-06T12:41:30;29.90;99.90
4964;DHT22;2497;47.410;9.740;2022-07-06T12:44:05;29.60;99.90
4964;DHT22;2497;47.410;9.740;2022-07-06T12:46:35;29.70;99.90
4964;DHT22;2497;47.410;9.740;2022-07-06T12:49:11;29.70;99.90
4964;DHT22;2497;47.410;9.740;2022-07-06T12:51:53;29.40;99.90
4964;DHT22;2497;47.410;9.740;2022-07-06T12:54:22;29.70;99.90
4964;DHT22;2497;47.410;9.740;2022-07-06T12:56:58;29.60;99.90
4964;DHT22;2497;47.410;9.740;2022-07-06T12:59:26;29.10;99.90
4964;DHT22;2497;47.410;9.740;2022-07-06T13:01:55;29.10;99.90
4964;DHT22;2497;47.410;9.740;2022-07-06T13:04:24;29.30;99.90
4964;DHT22;2497;47.410;9.740;2022-07-06T13:06:53;29.40;99.90
4964;DHT22;2497;47.410;9.740;2022-07-06T13:09:21;29.20;99.90
4964;DHT22;2497;47.410;9.740;2022-07-06T13:11:49;28.90;99.90
4964;DHT22;2497;47.410;9.740;2022-07-06T13:14:17;29.00;99.90
4964;DHT22;2497;47.410;9.740;2022-07-06T13:16:45;29.10;99.90
4964;DHT22;2497;47.410;9.740;2022-07-06T13:19:13;29.20;99.90
4964;DHT22;2497;47.410;9.740;2022-07-06T13:21:42;29.30;99.90
4964;DHT22;2497;47.410;9.740;2022-07-06T13:24:10;29.30;99.90
4964;DHT22;2497;47.410;9.740;2022-07-06T13:26:38;29.30;99.90
4964;DHT22;2497;47.410;9.740;2022-07-06T13:29:06;29.40;99.90
4964;DHT22;2497;47.410;9.740;2022-07-06T13:31:37;29.50;99.90
4964;DHT22;2497;47.410;9.740;2022-07-06T13:34:05;29.70;99.90
4964;DHT22;2497;47.410;9.740;2022-07-06T13:36:34;29.70;99.90
4964;DHT22;2497;47.410;9.740;2022-07-06T13:39:04;29.70;99.90
4964;DHT22;2497;47.410;9.740;2022-07-06T13:41:31;29.70;99.90
4964;DHT22;2497;47.410;9.740;2022-07-06T13:43:58;29.70;99.90
4964;DHT22;2497;47.410;9.740;2022-07-06T13:46:27;29.70;99.90
4964;DHT22;2497;47.410;9.740;2022-07-06T13:48:55;29.80;99.90
4964;DHT22;2497;47.410;9.740;2022-07-06T13:51:23;30.00;99.90
4964;DHT22;2497;47.410;9.740;2022-07-06T13:53:50;30.10;99.90
4964;DHT22;2497;47.410;9.740;2022-07-06T13:56:20;30.10;99.90
4964;DHT22;2497;47.410;9.740;2022-07-06T13:58:47;30.20;99.90
4964;DHT22;2497;47.410;9.740;2022-07-06T14:01:15;30.00;99.90
4964;DHT22;2497;47.410;9.740;2022-07-06T14:03:43;29.90;99.90
4964;DHT22;2497;47.410;9.740;2022-07-06T14:06:11;29.90;99.90
4964;DHT22;2497;47.410;9.740;2022-07-06T14:08:40;29.90;99.90
4964;DHT22;2497;47.410;9.740;2022-07-06T14:11:11;30.00;99.90
4964;DHT22;2497;47.410;9.740;2022-07-06T14:13:40;29.90;99.90
4964;DHT22;2497;47.410;9.740;2022-07-06T14:16:09;29.70;99.90
4964;DHT22;2497;47.410;9.740;2022-07-06T14:18:37;29.90;99.90
4964;DHT22;2497;47.410;9.740;2022-07-06T14:21:04;30.30;99.90
4964;DHT22;2497;47.410;9.740;2022-07-06T14:23:31;30.20;99.90
4964;DHT22;2497;47.410;9.740;2022-07-06T14:25:59;29.80;99.90
4964;DHT22;2497;47.410;9.740;2022-07-06T14:28:26;30.10;99.90
4964;DHT22;2497;47.410;9.740;2022-07-06T14:30:55;30.20;99.90
4964;DHT22;2497;47.410;9.740;2022-07-06T14:33:23;30.20;99.90
4964;DHT22;2497;47.410;9.740;2022-07-06T14:35:50;30.30;99.90
4964;DHT22;2497;47.410;9.740;2022-07-06T14:38:19;30.30;99.90
4964;DHT22;2497;47.410;9.740;2022-07-06T14:40:47;30.30;99.90
4964;DHT22;2497;47.410;9.740;2022-07-06T14:43:15;30.70;99.90
4964;DHT22;2497;47.410;9.740;2022-07-06T14:45:43;30.60;99.90
4964;DHT22;2497;47.410;9.740;2022-07-06T14:48:13;30.60;99.90
4964;DHT22;2497;47.410;9.740;2022-07-06T14:50:40;30.10;99.90
4964;DHT22;2497;47.410;9.740;2022-07-06T14:53:08;30.30;99.90
4964;DHT22;2497;47.410;9.740;2022-07-06T14:55:35;30.20;99.90
4964;DHT22;2497;47.410;9.740;2022-07-06T14:58:03;30.00;99.90
4964;DHT22;2497;47.410;9.740;2022-07-06T15:00:30;29.80;99.90
4964;DHT22;2497;47.410;9.740;2022-07-06T15:02:58;29.70;99.90
4964;DHT22;2497;47.410;9.740;2022-07-06T15:05:27;29.60;99.90
4964;DHT22;2497;47.410;9.740;2022-07-06T15:07:54;29.40;99.90
4964;DHT22;2497;47.410;9.740;2022-07-06T15:10:22;29.10;99.90
4964;DHT22;2497;47.410;9.740;2022-07-06T15:12:50;29.00;99.90
4964;DHT22;2497;47.410;9.740;2022-07-06T15:15:17;28.80;99.90
4964;DHT22;2497;47.410;9.740;2022-07-06T15:17:45;28.70;99.90
4964;DHT22;2497;47.410;9.740;2022-07-06T15:20:12;28.70;99.90
4964;DHT22;2497;47.410;9.740;2022-07-06T15:22:41;29.10;99.90
4964;DHT22;2497;47.410;9.740;2022-07-06T15:25:09;28.50;99.90
4964;DHT22;2497;47.410;9.740;2022-07-06T15:27:37;28.00;99.90
4964;DHT22;2497;47.410;9.740;2022-07-06T15:30:04;27.60;99.90
4964;DHT22;2497;47.410;9.740;2022-07-06T15:32:32;27.50;99.90
4964;DHT22;2497;47.410;9.740;2022-07-06T15:35:00;27.30;99.90
4964;DHT22;2497;47.410;9.740;2022-07-06T15:37:30;26.90;99.90
4964;DHT22;2497;47.410;9.740;2022-07-06T15:39:59;26.60;99.90
4964;DHT22;2497;47.410;9.740;2022-07-06T15:42:27;26.50;99.90
4964;DHT22;2497;47.410;9.740;2022-07-06T15:44:55;26.40;99.90
4964;DHT22;2497;47.410;9.740;2022-07-06T15:47:22;26.20;99.90
4964;DHT22;2497;47.410;9.740;2022-07-06T15:49:49;26.00;99.90
4964;DHT22;2497;47.410;9.740;2022-07-06T15:52:17;25.90;99.90
4964;DHT22;2497;47.410;9.740;2022-07-06T15:54:44;25.70;99.90
4964;DHT22;2497;47.410;9.740;2022-07-06T15:57:15;25.60;99.90
4964;DHT22;2497;47.410;9.740;2022-07-06T15:59:42;25.50;99.90
4964;DHT22;2497;47.410;9.740;2022-07-06T16:02:10;25.40;99.90
4964;DHT22;2497;47.410;9.740;2022-07-06T16:04:37;25.20;99.90
4964;DHT22;2497;47.410;9.740;2022-07-06T16:07:05;25.20;99.90
4964;DHT22;2497;47.410;9.740;2022-07-06T16:09:32;25.10;99.90
4964;DHT22;2497;47.410;9.740;2022-07-06T16:12:00;25.10;99.90